sensor_id;sensor_type;location;lat;lon;timestamp;temperature;humidity
18581;DHT22;9420;50.876;7.012;2023-03-13T00:01:14;11.40;99.90
18581;DHT22;9420;50.876;7.012;2023-03-13T00:03:45;11.30;99.90
18581;DHT22;9420;50.876;7.012;2023-03-13T00:06:13;11.30;99.90
18581;DHT22;9420;50.876;7.012;2023-03-13T00:08:41;11.20;99.90
18581;DHT22;9420;50.876;7.012;2023-03-13T00:11:11;11.20;99.90
18581;DHT22;9420;50.876;7.012;2023-03-13T00:13:39;11.20;99.90
18581;DHT22;9420;50.876;7.012;2023-03-13T00:16:09;11.20;99.90
18581;DHT22;9420;50.876;7.012;2023-03-13T00:18:37;11.20;99.90
18581;DHT22;9420;50.876;7.012;2023-03-13T00:21:07;11.20;99.90
18581;DHT22;9420;50.876;7.012;2023-03-13T00:23:36;11.30;99.90
18581;DHT22;9420;50.876;7.012;2023-03-13T00:26:05;11.30;99.90
18581;DHT22;9420;50.876;7.012;2023-03-13T00:28:35;11.40;99.90
18581;DHT22;9420;50.876;7.012;2023-03-13T00:31:05;11.40;99.90
18581;DHT22;9420;50.876;7.012;2023-03-13T00:33:33;11.40;99.90
18581;DHT22;9420;50.876;7.012;2023-03-13T00:36:02;11.50;99.90
18581;DHT22;9420;50.876;7.012;2023-03-13T00:38:32;11.50;99.90
18581;DHT22;9420;50.876;7.012;2023-03-13T00:41:01;11.60;99.90
18581;DHT22;9420;50.876;7.012;2023-03-13T00:43:30;11.50;99.90
18581;DHT22;9420;50.876;7.012;2023-03-13T00:45:57;11.50;99.90
18581;DHT22;9420;50.876;7.012;2023-03-13T00:48:24;11.40;99.90
18581;DHT22;9420;50.876;7.012;2023-03-13T00:50:52;11.20;99.90
18581;DHT22;9420;50.876;7.012;2023-03-13T00:53:19;11.00;99.90
18581;DHT22;9420;50.876;7.012;2023-03-13T00:55:52;11.00;99.90
18581;DHT22;9420;50.876;7.012;2023-03-13T00:58:21;10.90;99.90
18581;DHT22;9420;50.876;7.012;2023-03-13T01:00:49;11.00;99.90
18581;DHT22;9420;50.876;7.012;2023-03-13T01:03:16;10.90;99.90
18581;DHT22;9420;50.876;7.012;2023-03-13T01:05:44;11.00;99.90
18581;DHT22;9420;50.876;7.012;2023-03-13T01:08:11;10.90;99.90
18581;DHT22;9420;50.876;7.012;2023-03-13T01:10:38;10.80;99.90
18581;DHT22;9420;50.876;7.012;2023-03-13T01:13:07;10.80;99.90
18581;DHT22;9420;50.876;7.012;2023-03-13T01:15:34;10.80;99.90
18581;DHT22;9420;50.876;7.012;2023-03-13T01:18:01;11.00;99.90
18581;DHT22;9420;50.876;7.012;2023-03-13T01:20:29;10.90;99.90
18581;DHT22;9420;50.876;7.012;2023-03-13T01:22:56;10.90;99.90
18581;DHT22;9420;50.876;7.012;2023-03-13T01:25:23;10.80;99.90
18581;DHT22;9420;50.876;7.012;2023-03-13T01:27:50;10.80;99.90
18581;DHT22;9420;50.876;7.012;2023-03-13T01:30:19;10.80;99.90
18581;DHT22;9420;50.876;7.012;2023-03-13T01:32:46;10.90;99.90
18581;DHT22;9420;50.876;7.012;2023-03-13T01:35:13;10.80;99.90
18581;DHT22;9420;50.876;7.012;2023-03-13T01:37:40;10.70;99.90
18581;DHT22;9420;50.876;7.012;2023-03-13T01:40:08;10.90;99.90
18581;DHT22;9420;50.876;7.012;2023-03-13T01:42:53;11.10;99.90
18581;DHT22;9420;50.876;7.012;2023-03-13T01:45:55;11.20;99.90
18581;DHT22;9420;50.876;7.012;2023-03-13T01:48:34;11.30;99.90
18581;DHT22;9420;50.876;7.012;2023-03-13T01:51:08;11.30;99.90
18581;DHT22;9420;50.876;7.012;2023-03-13T01:53:40;11.30;99.90
18581;DHT22;9420;50.876;7.012;2023-03-13T01:56:16;11.30;99.90
18581;DHT22;9420;50.876;7.012;2023-03-13T01:58:47;11.30;99.90
18581;DHT22;9420;50.876;7.012;2023-03-13T02:01:18;11.30;99.90
18581;DHT22;9420;50.876;7.012;2023-03-13T02:03:46;11.30;99.90
18581;DHT22;9420;50.876;7.012;2023-03-13T02:06:15;11.30;99.90
18581;DHT22;9420;50.876;7.012;2023-03-13T02:08:47;11.30;99.90
18581;DHT22;9420;50.876;7.012;2023-03-13T02:11:26;11.30;99.90
18581;DHT22;9420;50.876;7.012;2023-03-13T02:13:58;11.30;99.90
18581;DHT22;9420;50.876;7.012;2023-03-13T02:16:29;11.20;99.90
18581;DHT22;9420;50.876;7.012;2023-03-13T02:18:58;11.30;99.90
18581;DHT22;9420;50.876;7.012;2023-03-13T02:21:37;11.20;99.90
18581;DHT22;9420;50.876;7.012;2023-03-13T02:24:12;11.40;99.90
18581;DHT22;9420;50.876;7.012;2023-03-13T02:26:50;11.40;99.90
18581;DHT22;9420;50.876;7.012;2023-03-13T02:29:17;11.40;99.90
18581;DHT22;9420;50.876;7.012;2023-03-13T02:31:45;11.40;99.90
18581;DHT22;9420;50.876;7.012;2023-03-13T02:34:16;11.30;99.90
18581;DHT22;9420;50.876;7.012;2023-03-13T02:36:48;11.20;99.90
18581;DHT22;9420;50.876;7.012;2023-03-13T02:39:18;11.10;99.90
18581;DHT22;9420;50.876;7.012;2023-03-13T02:41:47;10.90;99.90
18581;DHT22;9420;50.876;7.012;2023-03-13T02:44:17;10.70;99.90
18581;DHT22;9420;50.876;7.012;2023-03-13T02:46:45;10.60;99.90
18581;DHT22;9420;50.876;7.012;2023-03-13T02:49:20;10.50;99.90
18581;DHT22;9420;50.876;7.012;2023-03-13T02:51:50;10.40;99.90
18581;DHT22;9420;50.876;7.012;2023-03-13T02:54:23;10.30;99.90
18581;DHT22;9420;50.876;7.012;2023-03-13T02:56:55;10.30;99.90
18581;DHT22;9420;50.876;7.012;2023-03-13T02:59:25;10.30;99.90
18581;DHT22;9420;50.876;7.012;2023-03-13T03:01:53;10.30;99.90
18581;DHT22;9420;50.876;7.012;2023-03-13T03:04:21;10.30;99.90
18581;DHT22;9420;50.876;7.012;2023-03-13T03:06:49;10.50;99.90
18581;DHT22;9420;50.876;7.012;2023-03-13T03:09:18;10.40;99.90
18581;DHT22;9420;50.876;7.012;2023-03-13T03:11:46;10.40;99.90
18581;DHT22;9420;50.876;7.012;2023-03-13T03:14:13;10.40;99.90
18581;DHT22;9420;50.876;7.012;2023-03-13T03:16:42;10.40;99.90
18581;DHT22;9420;50.876;7.012;2023-03-13T03:19:09;10.50;99.90
18581;DHT22;9420;50.876;7.012;2023-03-13T03:21:36;10.60;99.90
18581;DHT22;9420;50.876;7.012;2023-03-13T03:24:04;10.50;99.90
18581;DHT22;9420;50.876;7.012;2023-03-13T03:26:31;10.60;99.90
18581;DHT22;9420;50.876;7.012;2023-03-13T03:28:59;10.60;99.90
18581;DHT22;9420;50.876;7.012;2023-03-13T03:31:26;10.50;99.90
18581;DHT22;9420;50.876;7.012;2023-03-13T03:33:54;10.60;99.90
18581;DHT22;9420;50.876;7.012;2023-03-13T03:36:22;10.70;99.90
18581;DHT22;9420;50.876;7.012;2023-03-13T03:38:49;10.60;99.90
18581;DHT22;9420;50.876;7.012;2023-03-13T03:41:17;10.70;99.90
18581;DHT22;9420;50.876;7.012;2023-03-13T03:43:45;10.80;99.90
18581;DHT22;9420;50.876;7.012;2023-03-13T03:46:13;10.80;99.90
18581;DHT22;9420;50.876;7.012;2023-03-13T03:48:40;10.80;99.90
18581;DHT22;9420;50.876;7.012;2023-03-13T03:51:10;10.90;99.90
18581;DHT22;9420;50.876;7.012;2023-03-13T03:53:37;10.90;99.90
18581;DHT22;9420;50.876;7.012;2023-03-13T03:56:05;10.90;99.90
18581;DHT22;9420;50.876;7.012;2023-03-13T03:58:33;10.90;99.90
18581;DHT22;9420;50.876;7.012;2023-03-13T04:00:59;11.00;99.90
18581;DHT22;9420;50.876;7.012;2023-03-13T04:03:26;11.00;99.90
18581;DHT22;9420;50.876;7.012;2023-03-13T04:05:53;11.10;99.90
18581;DHT22;9420;50.876;7.012;2023-03-13T04:08:22;11.20;99.90
18581;DHT22;9420;50.876;7.012;2023-03-13T04:10:50;11.30;99.90
18581;DHT22;9420;50.876;7.012;2023-03-13T04:13:17;11.40;99.90
18581;DHT22;9420;50.876;7.012;2023-03-13T04:15:44;11.50;99.90
18581;DHT22;9420;50.876;7.012;2023-03-13T04:18:13;11.70;99.90
18581;DHT22;9420;50.876;7.012;2023-03-13T04:20:41;11.70;99.90
18581;DHT22;9420;50.876;7.012;2023-03-13T04:23:08;11.80;99.90
18581;DHT22;9420;50.876;7.012;2023-03-13T04:25:36;11.90;99.90
18581;DHT22;9420;50.876;7.012;2023-03-13T04:28:04;12.00;99.90
18581;DHT22;9420;50.876;7.012;2023-03-13T04:30:31;11.80;99.90
18581;DHT22;9420;50.876;7.012;2023-03-13T04:32:58;11.90;99.90
18581;DHT22;9420;50.876;7.012;2023-03-13T04:35:25;11.80;99.90
18581;DHT22;9420;50.876;7.012;2023-03-13T04:37:53;11.60;99.90
18581;DHT22;9420;50.876;7.012;2023-03-13T04:40:20;11.60;99.90
18581;DHT22;9420;50.876;7.012;2023-03-13T04:42:48;11.50;99.90
18581;DHT22;9420;50.876;7.012;2023-03-13T04:45:16;11.50;99.90
18581;DHT22;9420;50.876;7.012;2023-03-13T04:47:44;11.60;99.90
18581;DHT22;9420;50.876;7.012;2023-03-13T04:50:12;11.60;99.90
18581;DHT22;9420;50.876;7.012;2023-03-13T04:52:39;11.60;99.90
18581;DHT22;9420;50.876;7.012;2023-03-13T04:55:07;11.70;99.90
18581;DHT22;9420;50.876;7.012;2023-03-13T04:57:34;11.70;99.90
18581;DHT22;9420;50.876;7.012;2023-03-13T05:00:04;11.70;99.90
18581;DHT22;9420;50.876;7.012;2023-03-13T05:02:33;11.90;99.90
18581;DHT22;9420;50.876;7.012;2023-03-13T05:05:00;12.10;99.90
18581;DHT22;9420;50.876;7.012;2023-03-13T05:07:27;12.10;99.90
18581;DHT22;9420;50.876;7.012;2023-03-13T05:09:54;12.30;99.90
18581;DHT22;9420;50.876;7.012;2023-03-13T05:12:21;12.30;99.90
18581;DHT22;9420;50.876;7.012;2023-03-13T05:14:48;12.20;99.90
18581;DHT22;9420;50.876;7.012;2023-03-13T05:17:17;12.30;99.90
18581;DHT22;9420;50.876;7.012;2023-03-13T05:19:44;12.20;99.90
18581;DHT22;9420;50.876;7.012;2023-03-13T05:22:11;12.20;99.90
18581;DHT22;9420;50.876;7.012;2023-03-13T05:24:38;12.20;99.90
18581;DHT22;9420;50.876;7.012;2023-03-13T05:27:05;12.20;99.90
18581;DHT22;9420;50.876;7.012;2023-03-13T05:29:32;12.20;99.90
18581;DHT22;9420;50.876;7.012;2023-03-13T05:31:59;12.30;99.90
18581;DHT22;9420;50.876;7.012;2023-03-13T05:34:28;12.30;99.90
18581;DHT22;9420;50.876;7.012;2023-03-13T05:36:55;12.40;99.90
18581;DHT22;9420;50.876;7.012;2023-03-13T05:39:22;12.30;99.90
18581;DHT22;9420;50.876;7.012;2023-03-13T05:41:49;12.30;99.90
18581;DHT22;9420;50.876;7.012;2023-03-13T05:44:16;12.30;99.90
18581;DHT22;9420;50.876;7.012;2023-03-13T05:46:44;12.20;99.90
18581;DHT22;9420;50.876;7.012;2023-03-13T05:49:11;12.30;99.90
18581;DHT22;9420;50.876;7.012;2023-03-13T05:51:40;12.50;99.90
18581;DHT22;9420;50.876;7.012;2023-03-13T05:54:07;12.50;99.90
18581;DHT22;9420;50.876;7.012;2023-03-13T05:56:35;12.60;99.90
18581;DHT22;9420;50.876;7.012;2023-03-13T05:59:02;12.70;99.90
18581;DHT22;9420;50.876;7.012;2023-03-13T06:01:29;12.70;99.90
18581;DHT22;9420;50.876;7.012;2023-03-13T06:03:56;12.80;99.90
18581;DHT22;9420;50.876;7.012;2023-03-13T06:06:23;12.90;99.90
18581;DHT22;9420;50.876;7.012;2023-03-13T06:08:52;12.80;99.90
18581;DHT22;9420;50.876;7.012;2023-03-13T06:11:19;12.70;99.90
18581;DHT22;9420;50.876;7.012;2023-03-13T06:13:46;12.80;99.90
18581;DHT22;9420;50.876;7.012;2023-03-13T06:16:13;12.80;99.90
18581;DHT22;9420;50.876;7.012;2023-03-13T06:18:40;12.80;99.90
18581;DHT22;9420;50.876;7.012;2023-03-13T06:21:08;12.60;99.90
18581;DHT22;9420;50.876;7.012;2023-03-13T06:23:36;12.70;99.90
18581;DHT22;9420;50.876;7.012;2023-03-13T06:26:04;12.70;99.90
18581;DHT22;9420;50.876;7.012;2023-03-13T06:28:31;12.80;99.90
18581;DHT22;9420;50.876;7.012;2023-03-13T06:31:00;12.80;99.90
18581;DHT22;9420;50.876;7.012;2023-03-13T06:33:28;13.00;99.90
18581;DHT22;9420;50.876;7.012;2023-03-13T06:35:57;13.10;99.90
18581;DHT22;9420;50.876;7.012;2023-03-13T06:38:26;13.10;99.90
18581;DHT22;9420;50.876;7.012;2023-03-13T06:40:54;13.30;99.90
18581;DHT22;9420;50.876;7.012;2023-03-13T06:43:51;13.30;99.90
18581;DHT22;9420;50.876;7.012;2023-03-13T06:46:24;13.50;99.90
18581;DHT22;9420;50.876;7.012;2023-03-13T06:48:52;13.50;99.90
18581;DHT22;9420;50.876;7.012;2023-03-13T06:51:21;13.60;99.90
18581;DHT22;9420;50.876;7.012;2023-03-13T06:53:51;13.70;99.90
18581;DHT22;9420;50.876;7.012;2023-03-13T06:56:18;13.80;99.90
18581;DHT22;9420;50.876;7.012;2023-03-13T06:58:48;13.90;99.90
18581;DHT22;9420;50.876;7.012;2023-03-13T07:01:16;13.80;99.90
18581;DHT22;9420;50.876;7.012;2023-03-13T07:03:46;13.80;99.90
18581;DHT22;9420;50.876;7.012;2023-03-13T07:06:15;13.80;99.90
18581;DHT22;9420;50.876;7.012;2023-03-13T07:08:43;13.90;99.90
18581;DHT22;9420;50.876;7.012;2023-03-13T07:11:12;14.00;99.90
18581;DHT22;9420;50.876;7.012;2023-03-13T07:13:41;13.90;99.90
18581;DHT22;9420;50.876;7.012;2023-03-13T07:16:11;13.90;99.90
18581;DHT22;9420;50.876;7.012;2023-03-13T07:18:39;14.20;99.90
18581;DHT22;9420;50.876;7.012;2023-03-13T07:21:10;14.20;99.90
18581;DHT22;9420;50.876;7.012;2023-03-13T07:23:39;14.20;99.90
18581;DHT22;9420;50.876;7.012;2023-03-13T07:26:08;14.30;99.90
18581;DHT22;9420;50.876;7.012;2023-03-13T07:28:37;14.40;99.90
18581;DHT22;9420;50.876;7.012;2023-03-13T07:31:07;14.50;99.90
18581;DHT22;9420;50.876;7.012;2023-03-13T07:33:39;14.40;99.90
18581;DHT22;9420;50.876;7.012;2023-03-13T07:36:07;14.60;99.90
18581;DHT22;9420;50.876;7.012;2023-03-13T07:38:35;14.50;99.90
18581;DHT22;9420;50.876;7.012;2023-03-13T07:41:03;14.60;99.90
18581;DHT22;9420;50.876;7.012;2023-03-13T07:43:30;14.60;99.90
18581;DHT22;9420;50.876;7.012;2023-03-13T07:45:59;14.60;99.90
18581;DHT22;9420;50.876;7.012;2023-03-13T07:48:29;14.70;99.90
18581;DHT22;9420;50.876;7.012;2023-03-13T07:50:59;14.70;99.90
18581;DHT22;9420;50.876;7.012;2023-03-13T07:53:28;14.80;99.90
18581;DHT22;9420;50.876;7.012;2023-03-13T07:55:57;14.90;99.90
18581;DHT22;9420;50.876;7.012;2023-03-13T07:58:27;15.00;99.90
18581;DHT22;9420;50.876;7.012;2023-03-13T08:00:56;15.10;99.90
18581;DHT22;9420;50.876;7.012;2023-03-13T08:03:24;15.00;99.90
18581;DHT22;9420;50.876;7.012;2023-03-13T08:06:00;15.00;99.90
18581;DHT22;9420;50.876;7.012;2023-03-13T08:08:30;15.00;99.90
18581;DHT22;9420;50.876;7.012;2023-03-13T08:11:01;15.10;99.90
18581;DHT22;9420;50.876;7.012;2023-03-13T08:13:29;15.10;99.90
18581;DHT22;9420;50.876;7.012;2023-03-13T08:16:02;15.00;99.90
18581;DHT22;9420;50.876;7.012;2023-03-13T08:18:30;14.90;99.90
18581;DHT22;9420;50.876;7.012;2023-03-13T08:21:05;14.90;99.90
18581;DHT22;9420;50.876;7.012;2023-03-13T08:23:34;14.70;99.90
18581;DHT22;9420;50.876;7.012;2023-03-13T08:26:03;14.70;99.90
18581;DHT22;9420;50.876;7.012;2023-03-13T08:28:31;14.90;99.90
18581;DHT22;9420;50.876;7.012;2023-03-13T08:30:58;14.90;99.90
18581;DHT22;9420;50.876;7.012;2023-03-13T08:33:33;14.80;99.90
18581;DHT22;9420;50.876;7.012;2023-03-13T08:36:09;14.90;99.90
18581;DHT22;9420;50.876;7.012;2023-03-13T08:38:38;15.10;99.90
18581;DHT22;9420;50.876;7.012;2023-03-13T08:41:06;15.10;99.90
18581;DHT22;9420;50.876;7.012;2023-03-13T08:43:33;14.90;99.90
18581;DHT22;9420;50.876;7.012;2023-03-13T08:46:00;15.00;99.90
18581;DHT22;9420;50.876;7.012;2023-03-13T08:48:27;14.90;99.90
18581;DHT22;9420;50.876;7.012;2023-03-13T08:51:03;15.10;99.90
18581;DHT22;9420;50.876;7.012;2023-03-13T08:53:34;15.10;99.90
18581;DHT22;9420;50.876;7.012;2023-03-13T08:56:02;15.10;99.90
18581;DHT22;9420;50.876;7.012;2023-03-13T08:58:30;15.20;99.90
18581;DHT22;9420;50.876;7.012;2023-03-13T09:01:00;15.10;99.90
18581;DHT22;9420;50.876;7.012;2023-03-13T09:03:28;15.00;99.90
18581;DHT22;9420;50.876;7.012;2023-03-13T09:05:56;14.80;99.90
18581;DHT22;9420;50.876;7.012;2023-03-13T09:08:23;14.80;99.90
18581;DHT22;9420;50.876;7.012;2023-03-13T09:10:55;15.00;99.90
18581;DHT22;9420;50.876;7.012;2023-03-13T09:13:24;14.90;99.90
18581;DHT22;9420;50.876;7.012;2023-03-13T09:15:56;14.90;99.90
18581;DHT22;9420;50.876;7.012;2023-03-13T09:18:24;14.90;99.90
18581;DHT22;9420;50.876;7.012;2023-03-13T09:20:52;14.90;99.90
18581;DHT22;9420;50.876;7.012;2023-03-13T09:23:20;15.00;99.90
18581;DHT22;9420;50.876;7.012;2023-03-13T09:25:48;14.90;99.90
18581;DHT22;9420;50.876;7.012;2023-03-13T09:28:19;14.80;99.90
18581;DHT22;9420;50.876;7.012;2023-03-13T09:30:47;14.80;99.90
18581;DHT22;9420;50.876;7.012;2023-03-13T09:33:15;14.70;99.90
18581;DHT22;9420;50.876;7.012;2023-03-13T09:35:43;14.60;99.90
18581;DHT22;9420;50.876;7.012;2023-03-13T09:38:15;14.50;99.90
18581;DHT22;9420;50.876;7.012;2023-03-13T09:40:44;14.50;99.90
18581;DHT22;9420;50.876;7.012;2023-03-13T09:43:24;14.40;99.90
18581;DHT22;9420;50.876;7.012;2023-03-13T09:46:02;14.40;99.90
18581;DHT22;9420;50.876;7.012;2023-03-13T09:48:40;14.30;99.90
18581;DHT22;9420;50.876;7.012;2023-03-13T09:51:14;14.40;99.90
18581;DHT22;9420;50.876;7.012;2023-03-13T09:53:48;14.30;99.90
18581;DHT22;9420;50.876;7.012;2023-03-13T09:56:23;14.20;99.90
18581;DHT22;9420;50.876;7.012;2023-03-13T09:58:58;14.20;99.90
18581;DHT22;9420;50.876;7.012;2023-03-13T10:01:32;14.40;99.90
18581;DHT22;9420;50.876;7.012;2023-03-13T10:04:06;14.50;99.90
18581;DHT22;9420;50.876;7.012;2023-03-13T10:06:41;14.50;99.90
18581;DHT22;9420;50.876;7.012;2023-03-13T10:09:16;14.60;99.90
18581;DHT22;9420;50.876;7.012;2023-03-13T10:11:50;14.90;99.90
18581;DHT22;9420;50.876;7.012;2023-03-13T10:14:29;15.00;99.90
18581;DHT22;9420;50.876;7.012;2023-03-13T10:17:08;14.90;99.90
18581;DHT22;9420;50.876;7.012;2023-03-13T10:19:42;14.90;99.90
18581;DHT22;9420;50.876;7.012;2023-03-13T10:22:14;14.90;99.90
18581;DHT22;9420;50.876;7.012;2023-03-13T10:24:48;14.90;99.90
18581;DHT22;9420;50.876;7.012;2023-03-13T10:27:17;14.90;99.90
18581;DHT22;9420;50.876;7.012;2023-03-13T10:29:45;15.00;99.90
18581;DHT22;9420;50.876;7.012;2023-03-13T10:32:14;15.10;99.90
18581;DHT22;9420;50.876;7.012;2023-03-13T10:34:52;15.20;99.90
18581;DHT22;9420;50.876;7.012;2023-03-13T10:37:24;15.30;99.90
18581;DHT22;9420;50.876;7.012;2023-03-13T10:39:54;15.40;99.90
18581;DHT22;9420;50.876;7.012;2023-03-13T10:42:42;15.60;99.90
18581;DHT22;9420;50.876;7.012;2023-03-13T10:45:16;15.60;99.90
18581;DHT22;9420;50.876;7.012;2023-03-13T10:47:46;15.60;99.90
18581;DHT22;9420;50.876;7.012;2023-03-13T10:50:22;15.60;99.90
18581;DHT22;9420;50.876;7.012;2023-03-13T10:52:51;15.60;99.90
18581;DHT22;9420;50.876;7.012;2023-03-13T10:55:20;15.80;99.90
18581;DHT22;9420;50.876;7.012;2023-03-13T10:57:56;15.80;99.90
18581;DHT22;9420;50.876;7.012;2023-03-13T11:00:32;16.00;99.90
18581;DHT22;9420;50.876;7.012;2023-03-13T11:03:04;16.00;99.90
18581;DHT22;9420;50.876;7.012;2023-03-13T11:05:37;16.30;99.90
18581;DHT22;9420;50.876;7.012;2023-03-13T11:08:12;16.60;99.90
18581;DHT22;9420;50.876;7.012;2023-03-13T11:10:57;16.80;99.90
18581;DHT22;9420;50.876;7.012;2023-03-13T11:13:36;17.20;99.90
18581;DHT22;9420;50.876;7.012;2023-03-13T11:16:17;17.30;99.90
18581;DHT22;9420;50.876;7.012;2023-03-13T11:19:09;17.10;99.90
18581;DHT22;9420;50.876;7.012;2023-03-13T11:22:17;17.00;99.90
18581;DHT22;9420;50.876;7.012;2023-03-13T11:25:00;16.80;99.90
18581;DHT22;9420;50.876;7.012;2023-03-13T11:27:35;17.00;99.90
18581;DHT22;9420;50.876;7.012;2023-03-13T11:30:18;17.10;99.90
18581;DHT22;9420;50.876;7.012;2023-03-13T11:33:01;17.30;99.90
18581;DHT22;9420;50.876;7.012;2023-03-13T11:35:39;17.60;99.90
18581;DHT22;9420;50.876;7.012;2023-03-13T11:38:17;17.50;99.90
18581;DHT22;9420;50.876;7.012;2023-03-13T11:40:55;17.30;99.90
18581;DHT22;9420;50.876;7.012;2023-03-13T11:43:41;17.10;99.90
18581;DHT22;9420;50.876;7.012;2023-03-13T11:46:26;17.00;99.90
18581;DHT22;9420;50.876;7.012;2023-03-13T11:49:14;16.80;99.90
18581;DHT22;9420;50.876;7.012;2023-03-13T11:52:00;16.80;99.90
18581;DHT22;9420;50.876;7.012;2023-03-13T11:57:57;17.90;99.90
18581;DHT22;9420;50.876;7.012;2023-03-13T12:00:39;18.70;99.90
18581;DHT22;9420;50.876;7.012;2023-03-13T12:03:13;17.90;99.90
18581;DHT22;9420;50.876;7.012;2023-03-13T12:05:50;17.70;99.90
18581;DHT22;9420;50.876;7.012;2023-03-13T12:08:24;17.50;99.90
18581;DHT22;9420;50.876;7.012;2023-03-13T12:11:03;17.30;99.90
18581;DHT22;9420;50.876;7.012;2023-03-13T12:13:40;17.30;99.90
18581;DHT22;9420;50.876;7.012;2023-03-13T12:16:13;17.50;99.90
18581;DHT22;9420;50.876;7.012;2023-03-13T12:18:45;17.40;99.90
18581;DHT22;9420;50.876;7.012;2023-03-13T12:21:18;17.60;99.90
18581;DHT22;9420;50.876;7.012;2023-03-13T12:23:53;18.30;99.90
18581;DHT22;9420;50.876;7.012;2023-03-13T12:26:34;18.80;99.90
18581;DHT22;9420;50.876;7.012;2023-03-13T12:29:13;18.70;99.90
18581;DHT22;9420;50.876;7.012;2023-03-13T12:31:46;18.50;99.90
18581;DHT22;9420;50.876;7.012;2023-03-13T12:34:21;18.60;99.90
18581;DHT22;9420;50.876;7.012;2023-03-13T12:37:00;18.10;99.90
18581;DHT22;9420;50.876;7.012;2023-03-13T12:39:36;18.00;99.90
18581;DHT22;9420;50.876;7.012;2023-03-13T12:42:22;18.00;99.90
18581;DHT22;9420;50.876;7.012;2023-03-13T12:44:58;17.60;99.90
18581;DHT22;9420;50.876;7.012;2023-03-13T12:47:30;17.40;99.90
18581;DHT22;9420;50.876;7.012;2023-03-13T12:50:24;17.30;99.90
18581;DHT22;9420;50.876;7.012;2023-03-13T12:53:23;17.20;99.90
18581;DHT22;9420;50.876;7.012;2023-03-13T12:56:19;17.30;99.90
18581;DHT22;9420;50.876;7.012;2023-03-13T12:58:58;17.20;99.90
18581;DHT22;9420;50.876;7.012;2023-03-13T13:01:32;17.30;99.90
18581;DHT22;9420;50.876;7.012;2023-03-13T13:04:05;18.20;99.90
18581;DHT22;9420;50.876;7.012;2023-03-13T13:06:55;18.80;99.90
18581;DHT22;9420;50.876;7.012;2023-03-13T13:09:29;19.90;99.90
18581;DHT22;9420;50.876;7.012;2023-03-13T13:11:59;18.50;99.90
18581;DHT22;9420;50.876;7.012;2023-03-13T13:15:00;17.70;99.90
18581;DHT22;9420;50.876;7.012;2023-03-13T13:20:37;18.00;99.90
18581;DHT22;9420;50.876;7.012;2023-03-13T13:23:27;17.50;99.90
18581;DHT22;9420;50.876;7.012;2023-03-13T13:32:40;17.20;99.90
18581;DHT22;9420;50.876;7.012;2023-03-13T13:35:32;17.00;99.90
18581;DHT22;9420;50.876;7.012;2023-03-13T13:38:19;17.10;99.90
18581;DHT22;9420;50.876;7.012;2023-03-13T13:41:00;17.20;99.90
18581;DHT22;9420;50.876;7.012;2023-03-13T13:43:32;17.10;99.90
18581;DHT22;9420;50.876;7.012;2023-03-13T13:46:03;17.10;99.90
18581;DHT22;9420;50.876;7.012;2023-03-13T13:48:42;16.90;99.90
18581;DHT22;9420;50.876;7.012;2023-03-13T13:51:21;16.80;99.90
18581;DHT22;9420;50.876;7.012;2023-03-13T13:54:01;16.80;99.90
18581;DHT22;9420;50.876;7.012;2023-03-13T13:56:38;17.00;99.90
18581;DHT22;9420;50.876;7.012;2023-03-13T13:59:34;17.80;99.90
18581;DHT22;9420;50.876;7.012;2023-03-13T14:02:19;17.80;99.90
18581;DHT22;9420;50.876;7.012;2023-03-13T14:05:01;17.50;99.90
18581;DHT22;9420;50.876;7.012;2023-03-13T14:07:41;17.40;99.90
18581;DHT22;9420;50.876;7.012;2023-03-13T14:10:30;17.30;99.90
18581;DHT22;9420;50.876;7.012;2023-03-13T14:13:08;17.00;99.90
18581;DHT22;9420;50.876;7.012;2023-03-13T14:15:42;17.40;99.90
18581;DHT22;9420;50.876;7.012;2023-03-13T14:18:16;17.70;99.90
18581;DHT22;9420;50.876;7.012;2023-03-13T14:20:53;17.50;99.90
18581;DHT22;9420;50.876;7.012;2023-03-13T14:23:32;17.30;99.90
18581;DHT22;9420;50.876;7.012;2023-03-13T14:26:15;17.40;99.90
18581;DHT22;9420;50.876;7.012;2023-03-13T14:28:45;17.60;99.90
18581;DHT22;9420;50.876;7.012;2023-03-13T14:31:28;17.60;99.90
18581;DHT22;9420;50.876;7.012;2023-03-13T14:33:59;17.50;99.90
18581;DHT22;9420;50.876;7.012;2023-03-13T14:36:27;17.40;99.90
18581;DHT22;9420;50.876;7.012;2023-03-13T14:38:56;17.40;99.90
18581;DHT22;9420;50.876;7.012;2023-03-13T14:41:31;17.50;99.90
18581;DHT22;9420;50.876;7.012;2023-03-13T14:44:04;17.50;99.90
18581;DHT22;9420;50.876;7.012;2023-03-13T14:46:40;17.40;99.90
18581;DHT22;9420;50.876;7.012;2023-03-13T14:49:15;17.20;99.90
18581;DHT22;9420;50.876;7.012;2023-03-13T14:51:45;17.10;99.90
18581;DHT22;9420;50.876;7.012;2023-03-13T14:54:25;17.00;99.90
18581;DHT22;9420;50.876;7.012;2023-03-13T14:57:13;17.00;99.90
18581;DHT22;9420;50.876;7.012;2023-03-13T14:59:42;17.00;99.90
18581;DHT22;9420;50.876;7.012;2023-03-13T15:02:18;17.10;99.90
18581;DHT22;9420;50.876;7.012;2023-03-13T15:04:53;17.10;99.90
18581;DHT22;9420;50.876;7.012;2023-03-13T15:07:24;17.00;99.90
18581;DHT22;9420;50.876;7.012;2023-03-13T15:09:53;16.90;99.90
18581;DHT22;9420;50.876;7.012;2023-03-13T15:12:22;16.90;99.90
18581;DHT22;9420;50.876;7.012;2023-03-13T15:14:50;16.90;99.90
18581;DHT22;9420;50.876;7.012;2023-03-13T15:17:20;16.90;99.90
18581;DHT22;9420;50.876;7.012;2023-03-13T15:19:50;16.90;99.90
18581;DHT22;9420;50.876;7.012;2023-03-13T15:22:24;16.80;99.90
18581;DHT22;9420;50.876;7.012;2023-03-13T15:24:53;16.80;99.90
18581;DHT22;9420;50.876;7.012;2023-03-13T15:27:22;16.70;99.90
18581;DHT22;9420;50.876;7.012;2023-03-13T15:29:51;16.60;99.90
18581;DHT22;9420;50.876;7.012;2023-03-13T15:32:25;16.60;99.90
18581;DHT22;9420;50.876;7.012;2023-03-13T15:34:55;16.70;99.90
18581;DHT22;9420;50.876;7.012;2023-03-13T15:37:23;16.80;99.90
18581;DHT22;9420;50.876;7.012;2023-03-13T15:39:51;16.80;99.90
18581;DHT22;9420;50.876;7.012;2023-03-13T15:42:18;16.70;99.90
18581;DHT22;9420;50.876;7.012;2023-03-13T15:44:45;16.60;99.90
18581;DHT22;9420;50.876;7.012;2023-03-13T15:47:15;16.40;99.90
18581;DHT22;9420;50.876;7.012;2023-03-13T15:49:46;16.40;99.90
18581;DHT22;9420;50.876;7.012;2023-03-13T15:52:15;16.40;99.90
18581;DHT22;9420;50.876;7.012;2023-03-13T15:54:47;16.30;99.90
18581;DHT22;9420;50.876;7.012;2023-03-13T15:57:17;16.50;99.90
18581;DHT22;9420;50.876;7.012;2023-03-13T15:59:47;16.60;99.90
18581;DHT22;9420;50.876;7.012;2023-03-13T16:02:16;17.80;99.90
18581;DHT22;9420;50.876;7.012;2023-03-13T16:04:46;18.20;99.90
18581;DHT22;9420;50.876;7.012;2023-03-13T16:07:16;18.20;99.90
18581;DHT22;9420;50.876;7.012;2023-03-13T16:09:45;17.70;99.90
18581;DHT22;9420;50.876;7.012;2023-03-13T16:12:12;17.10;99.90
18581;DHT22;9420;50.876;7.012;2023-03-13T16:14:40;16.70;99.90
18581;DHT22;9420;50.876;7.012;2023-03-13T16:17:13;16.50;99.90
18581;DHT22;9420;50.876;7.012;2023-03-13T16:19:41;16.40;99.90
18581;DHT22;9420;50.876;7.012;2023-03-13T16:22:10;16.40;99.90
18581;DHT22;9420;50.876;7.012;2023-03-13T16:24:38;16.30;99.90
18581;DHT22;9420;50.876;7.012;2023-03-13T16:27:12;16.30;99.90